TimeMST,TemperatureF,Dew PointF,Humidity,Sea Level PressureIn,VisibilityMPH,Wind Direction,Wind SpeedMPH,Gust SpeedMPH,PrecipitationIn,Events,Conditions,WindDirDegrees,DateUTC
12:15 AM,33.8,21.2,60,29.78,10.0,WNW,20.7,26.5,N/A,,Overcast,290,2013-11-04 07:15:00
12:35 AM,33.8,21.2,60,29.79,10.0,WNW,28.8,33.4,N/A,,Overcast,290,2013-11-04 07:35:00
12:55 AM,32.0,19.4,60,29.81,10.0,West,20.7,28.8,N/A,,Overcast,280,2013-11-04 07:55:00
1:15 AM,32.0,19.4,60,29.81,10.0,West,19.6,26.5,N/A,,Overcast,280,2013-11-04 08:15:00
1:35 AM,32.0,19.4,60,29.82,10.0,West,18.4,27.6,N/A,,Overcast,280,2013-11-04 08:35:00
1:56 AM,32.0,19.4,60,29.83,10.0,West,23.0,27.6,N/A,,Overcast,270,2013-11-04 08:56:00
2:15 AM,32.0,19.4,60,29.84,10.0,WNW,23.0,26.5,N/A,,Overcast,290,2013-11-04 09:15:00
2:35 AM,30.2,17.6,60,29.84,10.0,West,17.3,27.6,N/A,,Overcast,280,2013-11-04 09:35:00
3:15 AM,30.2,17.6,60,29.84,10.0,WNW,26.5,33.4,N/A,,Overcast,290,2013-11-04 10:15:00
3:35 AM,30.2,17.6,60,29.85,10.0,West,16.1,28.8,N/A,,Overcast,280,2013-11-04 10:35:00
3:55 AM,30.2,19.4,64,29.86,10.0,WNW,18.4,24.2,N/A,,Overcast,290,2013-11-04 10:55:00
4:15 AM,30.2,19.4,64,29.87,10.0,West,16.1,25.3,N/A,,Overcast,280,2013-11-04 11:15:00
4:35 AM,30.2,19.4,64,29.87,10.0,West,21.9,26.5,N/A,,Overcast,280,2013-11-04 11:35:00
5:15 AM,30.2,19.4,64,29.88,10.0,West,19.6,27.6,N/A,,Overcast,280,2013-11-04 12:15:00
5:35 AM,30.2,19.4,64,29.88,10.0,West,21.9,25.3,N/A,,Overcast,280,2013-11-04 12:35:00
6:15 AM,28.4,17.6,64,29.89,10.0,West,20.7,29.9,N/A,,Overcast,280,2013-11-04 13:15:00
6:35 AM,28.4,17.6,64,29.90,10.0,West,18.4,23.0,N/A,,Overcast,280,2013-11-04 13:35:00
6:55 AM,28.4,17.6,64,29.90,10.0,WNW,13.8,23.0,N/A,,Overcast,290,2013-11-04 13:55:00
7:15 AM,28.4,19.4,69,29.91,10.0,West,21.9,27.6,N/A,,Overcast,280,2013-11-04 14:15:00
7:35 AM,28.4,17.6,64,29.93,10.0,West,19.6,33.4,N/A,,Overcast,280,2013-11-04 14:35:00
7:55 AM,28.4,17.6,64,29.94,10.0,WNW,18.4,26.5,N/A,,Overcast,300,2013-11-04 14:55:00
8:35 AM,28.4,17.6,64,29.95,10.0,West,21.9,28.8,N/A,,Scattered Clouds,280,2013-11-04 15:35:00
8:55 AM,30.2,17.6,60,29.96,10.0,West,19.6,28.8,N/A,,Clear,280,2013-11-04 15:55:00
9:15 AM,30.2,17.6,60,29.96,10.0,WNW,17.3,25.3,N/A,,Clear,290,2013-11-04 16:15:00
9:35 AM,32.0,15.8,51,29.97,10.0,WNW,18.4,21.9,N/A,,Clear,300,2013-11-04 16:35:00
9:55 AM,33.8,15.8,48,29.96,10.0,WNW,17.3,24.2,N/A,,Clear,290,2013-11-04 16:55:00
10:35 AM,33.8,15.8,48,29.97,10.0,West,21.9,34.5,N/A,,Clear,280,2013-11-04 17:35:00
10:55 AM,35.6,15.8,44,29.97,10.0,WNW,20.7,29.9,N/A,,Clear,290,2013-11-04 17:55:00
11:15 AM,35.6,15.8,44,29.97,10.0,West,23.0,31.1,N/A,,Partly Cloudy,280,2013-11-04 18:15:00
11:35 AM,35.6,15.8,44,29.97,10.0,West,21.9,28.8,N/A,,Clear,280,2013-11-04 18:35:00
11:55 AM,37.4,15.8,41,29.96,10.0,West,19.6,28.8,N/A,,Clear,280,2013-11-04 18:55:00
12:55 PM,37.4,14.0,38,29.95,10.0,WNW,20.7,28.8,N/A,,Clear,290,2013-11-04 19:55:00
1:15 PM,37.4,12.2,36,29.95,10.0,West,28.8,35.7,N/A,,Clear,270,2013-11-04 20:15:00
1:35 PM,37.4,12.2,36,29.96,10.0,WNW,23.0,29.9,N/A,,Clear,290,2013-11-04 20:35:00
1:55 PM,37.4,14.0,38,29.96,10.0,WNW,23.0,31.1,N/A,,Clear,300,2013-11-04 20:55:00
2:15 PM,37.4,12.2,36,29.96,10.0,West,21.9,32.2,N/A,,Clear,280,2013-11-04 21:15:00
2:35 PM,35.6,14.0,41,29.97,10.0,West,21.9,27.6,N/A,,Clear,270,2013-11-04 21:35:00
2:55 PM,35.6,12.2,38,29.97,10.0,West,21.9,29.9,N/A,,Clear,270,2013-11-04 21:55:00
3:15 PM,35.6,12.2,38,29.97,10.0,West,19.6,29.9,N/A,,Clear,280,2013-11-04 22:15:00
3:35 PM,35.6,14.0,41,29.98,10.0,WNW,15.0,-,N/A,,Clear,290,2013-11-04 22:35:00
3:55 PM,33.8,14.0,44,29.99,10.0,West,16.1,21.9,N/A,,Clear,280,2013-11-04 22:55:00
4:15 PM,33.8,12.2,41,30.00,10.0,West,16.1,21.9,N/A,,Clear,280,2013-11-04 23:15:00
4:35 PM,30.2,12.2,47,30.00,10.0,WNW,8.1,-,N/A,,Clear,290,2013-11-04 23:35:00
4:55 PM,28.4,12.2,51,30.01,10.0,WNW,8.1,-,N/A,,Clear,300,2013-11-04 23:55:00
5:35 PM,24.8,14.0,64,30.02,10.0,WNW,9.2,-,N/A,,Clear,290,2013-11-05 00:35:00
5:55 PM,23.0,12.2,63,30.03,10.0,West,8.1,-,N/A,,Clear,270,2013-11-05 00:55:00
6:15 PM,21.2,12.2,68,30.04,10.0,WSW,6.9,-,N/A,,Clear,240,2013-11-05 01:15:00
6:35 PM,21.2,14.0,74,30.05,10.0,WSW,9.2,-,N/A,,Clear,250,2013-11-05 01:35:00
6:55 PM,21.2,12.2,68,30.05,10.0,WSW,8.1,-,N/A,,Clear,250,2013-11-05 01:55:00
7:15 PM,21.2,12.2,68,30.05,10.0,WSW,8.1,-,N/A,,Clear,240,2013-11-05 02:15:00
7:35 PM,21.2,15.8,80,30.05,10.0,WSW,9.2,-,N/A,,Clear,240,2013-11-05 02:35:00
8:15 PM,19.4,10.4,68,30.06,10.0,West,9.2,-,N/A,,Clear,270,2013-11-05 03:15:00
8:35 PM,19.4,12.2,74,30.07,10.0,West,9.2,-,N/A,,Clear,280,2013-11-05 03:35:00
8:55 PM,19.4,10.4,68,30.07,10.0,West,10.4,-,N/A,,Clear,270,2013-11-05 03:55:00
9:15 PM,19.4,10.4,68,30.08,10.0,West,9.2,-,N/A,,Clear,280,2013-11-05 04:15:00
9:55 PM,17.6,12.2,79,30.08,10.0,West,11.5,-,N/A,,Clear,270,2013-11-05 04:55:00
10:15 PM,19.4,14.0,80,30.08,10.0,West,10.4,-,N/A,,Clear,280,2013-11-05 05:15:00
10:35 PM,19.4,12.2,74,30.09,10.0,WNW,8.1,-,N/A,,Clear,300,2013-11-05 05:35:00
10:55 PM,17.6,10.4,73,30.09,10.0,West,5.8,-,N/A,,Clear,280,2013-11-05 05:55:00
11:15 PM,17.6,10.4,73,30.10,10.0,West,6.9,-,N/A,,Clear,280,2013-11-05 06:15:00
11:35 PM,15.8,8.6,73,30.10,10.0,WNW,6.9,-,N/A,,Clear,300,2013-11-05 06:35:00
11:55 PM,17.6,12.2,79,30.10,10.0,WNW,8.1,-,N/A,,Clear,300,2013-11-05 06:55:00